createdAt,value
2019-03-23T08:34:44.014Z,33.90
2019-03-23T08:37:17.997Z,33.30
2019-03-23T08:39:51.089Z,33.27
2019-03-23T08:42:23.867Z,34.05
2019-03-23T08:44:56.785Z,36.28
2019-03-23T08:47:29.563Z,34.00
2019-03-23T08:50:02.390Z,36.55
2019-03-23T08:52:35.208Z,32.28
2019-03-23T08:55:08.111Z,33.92
2019-03-23T08:57:41.593Z,32.88
2019-03-23T09:00:14.584Z,32.73
2019-03-23T09:02:47.403Z,31.57
2019-03-23T09:05:20.188Z,33.10
2019-03-23T09:07:53.004Z,29.23
2019-03-23T09:10:25.907Z,34.35
2019-03-23T09:12:58.715Z,29.60
2019-03-23T09:15:31.996Z,30.10
2019-03-23T09:18:04.811Z,29.52
2019-03-23T09:20:37.563Z,27.93
2019-03-23T09:23:10.329Z,29.60
2019-03-23T09:25:45.513Z,28.50
2019-03-23T09:28:17.671Z,25.82
2019-03-23T09:30:50.722Z,25.70
2019-03-23T09:33:23.482Z,29.07
2019-03-23T09:35:56.275Z,29.25
2019-03-23T09:38:29.188Z,29.35
2019-03-23T09:41:01.972Z,27.70
2019-03-23T09:43:34.765Z,26.15
2019-03-23T09:46:07.558Z,23.05
2019-03-23T09:48:40.351Z,22.73
2019-03-23T09:51:13.178Z,26.23
2019-03-23T09:53:46.002Z,21.45
2019-03-23T09:56:18.736Z,23.75
2019-03-23T09:58:51.867Z,24.10
2019-03-23T10:01:24.703Z,22.80
2019-03-23T10:03:57.482Z,23.07
2019-03-23T10:06:30.343Z,23.07
2019-03-23T10:09:03.996Z,22.20
2019-03-23T10:11:36.853Z,20.43
2019-03-23T10:14:09.666Z,21.10
2019-03-23T10:16:43.458Z,21.87
2019-03-23T10:19:16.300Z,32.60
2019-03-23T10:21:49.094Z,21.65
2019-03-23T10:24:21.861Z,21.37
2019-03-23T10:26:54.688Z,21.37
2019-03-23T10:29:27.520Z,21.05
2019-03-23T10:32:00.740Z,20.77
2019-03-23T10:34:33.534Z,21.42
2019-03-23T10:37:06.361Z,21.05
2019-03-23T10:39:39.151Z,21.30
2019-03-23T10:42:11.980Z,23.40
2019-03-23T10:44:44.766Z,24.05
2019-03-23T10:47:17.561Z,24.70
2019-03-23T10:49:50.939Z,21.77
2019-03-23T10:52:23.804Z,22.20
2019-03-23T10:54:56.602Z,20.43
2019-03-23T10:57:29.453Z,21.57
2019-03-23T11:00:02.473Z,22.60
2019-03-23T11:02:35.308Z,22.60
2019-03-23T11:05:08.772Z,24.98
2019-03-23T11:07:42.062Z,29.18
2019-03-23T11:10:15.265Z,20.82
2019-03-23T11:12:48.006Z,20.50
2019-03-23T11:15:21.057Z,23.75
2019-03-23T11:17:53.800Z,23.73
2019-03-23T11:20:26.503Z,29.57
2019-03-23T11:22:59.266Z,21.95
2019-03-23T11:25:31.988Z,36.15
2019-03-23T11:28:04.758Z,35.85
2019-03-23T11:30:37.550Z,21.15
2019-03-23T11:33:10.415Z,17.85
2019-03-23T11:35:43.198Z,18.07
2019-03-23T11:38:15.930Z,22.77
2019-03-23T11:40:54.040Z,19.30
2019-03-23T11:43:23.179Z,13.48
2019-03-23T11:45:56.024Z,15.93
2019-03-23T11:48:28.813Z,14.87
2019-03-23T11:51:01.600Z,17.48
2019-03-23T11:53:34.366Z,19.92
2019-03-23T11:56:07.150Z,15.90
2019-03-23T11:58:39.948Z,16.42
2019-03-23T12:01:12.732Z,18.45
2019-03-23T12:03:45.536Z,13.43
2019-03-23T12:06:18.320Z,21.77
2019-03-23T12:08:51.508Z,28.87
2019-03-23T12:11:24.403Z,25.72
2019-03-23T12:13:57.203Z,15.00
2019-03-23T12:16:30.033Z,19.52
2019-03-23T12:19:02.851Z,21.03
2019-03-23T12:21:35.714Z,19.93
2019-03-23T12:24:08.538Z,19.60
2019-03-23T12:26:41.298Z,18.60
2019-03-23T12:29:14.077Z,26.83
2019-03-23T12:31:46.821Z,19.03
2019-03-23T12:34:19.719Z,17.27
2019-03-23T12:36:52.590Z,14.27
2019-03-23T12:39:25.395Z,24.13
2019-03-23T12:41:58.208Z,17.47
2019-03-23T12:44:31.473Z,23.80
2019-03-23T12:47:04.234Z,28.50
2019-03-23T12:49:37.006Z,27.73
2019-03-23T12:52:09.802Z,23.93
2019-03-23T12:54:42.561Z,20.27
2019-03-23T12:57:15.365Z,20.33
2019-03-23T12:59:48.159Z,19.37
2019-03-23T13:02:21.366Z,20.00
2019-03-23T13:04:54.203Z,18.93
2019-03-23T13:07:26.964Z,19.97
2019-03-23T13:09:59.775Z,26.97
2019-03-23T13:12:32.575Z,21.37
2019-03-23T13:15:06.337Z,31.80
2019-03-23T13:17:39.076Z,21.73
2019-03-23T13:20:12.494Z,23.53
2019-03-23T13:22:45.358Z,19.67
2019-03-23T13:25:18.242Z,22.97
2019-03-23T13:27:51.100Z,23.33
2019-03-23T13:30:23.906Z,22.60
2019-03-23T13:32:56.781Z,21.67
2019-03-23T13:35:29.541Z,21.43
2019-03-23T13:38:02.325Z,20.97
2019-03-23T13:40:35.099Z,22.97
2019-03-23T13:43:07.875Z,22.77
2019-03-23T13:45:42.769Z,21.97
2019-03-23T13:48:15.841Z,25.40
2019-03-23T13:50:48.635Z,30.30
2019-03-23T13:53:21.456Z,24.33
2019-03-23T13:55:54.241Z,23.70
2019-03-23T13:58:26.994Z,22.33
2019-03-23T14:00:59.861Z,24.60
2019-03-23T14:03:32.667Z,22.03
2019-03-23T14:06:05.551Z,21.03
2019-03-23T14:08:38.315Z,21.43
2019-03-23T14:11:11.619Z,21.10
2019-03-23T14:13:44.408Z,19.80
2019-03-23T14:16:17.201Z,24.33
2019-03-23T14:18:49.999Z,24.93
2019-03-23T14:21:22.791Z,23.90
2019-03-23T14:23:55.740Z,21.60
2019-03-23T14:26:28.518Z,21.40
2019-03-23T14:29:01.269Z,21.93
2019-03-23T14:31:34.135Z,20.57
2019-03-23T14:34:06.909Z,24.17
2019-03-23T14:36:39.691Z,31.07
2019-03-23T14:39:12.495Z,27.97
2019-03-23T14:41:45.319Z,22.80
2019-03-23T14:44:18.107Z,20.70
2019-03-23T14:46:51.267Z,21.20
2019-03-23T14:49:24.081Z,22.47
2019-03-23T14:51:56.864Z,25.90
2019-03-23T14:54:29.733Z,25.80
2019-03-23T14:57:02.552Z,24.50
2019-03-23T14:59:35.340Z,27.50
2019-03-23T15:02:08.171Z,27.77
2019-03-23T15:04:41.369Z,29.57
2019-03-23T15:07:14.153Z,29.03
2019-03-23T15:09:47.029Z,31.03
2019-03-23T15:12:19.835Z,29.57
2019-03-23T15:14:52.623Z,29.77
2019-03-23T15:17:25.441Z,28.80
2019-03-23T15:19:58.255Z,31.07
2019-03-23T15:22:31.096Z,25.80
2019-03-23T15:25:03.875Z,27.23
2019-03-23T15:27:36.711Z,31.07
2019-03-23T15:30:10.196Z,29.87
2019-03-23T15:32:42.995Z,28.50
2019-03-23T15:35:15.901Z,27.73
2019-03-23T15:37:48.721Z,27.00
2019-03-23T15:40:21.916Z,26.90
2019-03-23T15:42:54.738Z,30.23
2019-03-23T15:45:27.487Z,26.50
2019-03-23T15:48:00.350Z,25.73
2019-03-23T15:50:33.123Z,38.47
2019-03-23T15:53:05.907Z,33.23
2019-03-23T15:55:38.696Z,31.93
2019-03-23T15:58:11.432Z,30.70
2019-03-23T16:00:44.224Z,29.63
2019-03-23T16:03:17.059Z,35.67
2019-03-23T16:05:49.844Z,39.47
2019-03-23T16:08:22.764Z,36.17
2019-03-23T16:10:55.493Z,36.40
2019-03-23T16:13:28.466Z,31.63
2019-03-23T16:16:01.636Z,28.70
2019-03-23T16:18:34.527Z,29.00
2019-03-23T16:21:07.497Z,29.87
2019-03-23T16:23:40.363Z,32.00
2019-03-23T16:26:13.162Z,29.83
2019-03-23T16:28:45.959Z,27.30
2019-03-23T16:31:18.791Z,31.53
2019-03-23T16:33:51.612Z,32.57
2019-03-23T16:36:24.414Z,34.37
2019-03-23T16:38:57.583Z,39.20
2019-03-23T16:41:30.529Z,35.13
2019-03-23T16:44:03.343Z,35.37
2019-03-23T16:46:36.140Z,33.03
2019-03-23T16:49:08.919Z,26.00
2019-03-23T16:51:42.097Z,22.00
2019-03-23T16:54:14.856Z,20.47
2019-03-23T16:56:47.633Z,20.20
2019-03-23T16:59:20.411Z,19.13
2019-03-23T17:01:53.180Z,21.10
2019-03-23T17:04:25.992Z,20.20
2019-03-23T17:06:58.768Z,23.67
2019-03-23T17:09:31.934Z,22.23
2019-03-23T17:12:04.686Z,24.97
2019-03-23T17:14:37.475Z,38.67
2019-03-23T17:17:10.319Z,31.43
2019-03-23T17:19:43.108Z,28.37
2019-03-23T17:22:15.883Z,24.77
2019-03-23T17:24:48.715Z,24.67
2019-03-23T17:27:21.856Z,30.30
2019-03-23T17:29:54.688Z,30.47
2019-03-23T17:32:27.552Z,28.17
2019-03-23T17:35:00.492Z,31.43
2019-03-23T17:37:33.286Z,32.13
2019-03-23T17:40:06.185Z,46.10
2019-03-23T17:42:39.058Z,39.70
2019-03-23T17:45:12.802Z,33.37
2019-03-23T17:47:45.642Z,28.97
2019-03-23T17:50:18.415Z,37.17
2019-03-23T17:52:51.517Z,44.60
2019-03-23T17:55:24.297Z,43.13
2019-03-23T17:57:57.097Z,38.40
2019-03-23T18:00:30.545Z,43.33
2019-03-23T18:03:03.553Z,37.13
2019-03-23T18:05:36.350Z,32.17
2019-03-23T18:08:09.234Z,29.63
2019-03-23T18:10:42.063Z,25.97
2019-03-23T18:13:16.705Z,38.07
2019-03-23T18:15:49.404Z,48.00
2019-03-23T18:18:22.165Z,51.20
2019-03-23T18:20:55.041Z,43.50
2019-03-23T18:23:27.794Z,35.03
2019-03-23T18:26:00.964Z,28.63
2019-03-23T18:28:33.741Z,25.90
2019-03-23T18:31:06.541Z,24.57
2019-03-23T18:33:39.342Z,23.67
2019-03-23T18:36:12.150Z,26.77
2019-03-23T18:38:44.964Z,23.13
2019-03-23T18:41:17.740Z,21.60
2019-03-23T18:43:50.521Z,32.87
2019-03-23T18:46:24.556Z,35.83
2019-03-23T18:48:57.655Z,35.97
2019-03-23T18:51:30.471Z,37.00
2019-03-23T18:54:03.268Z,41.97
2019-03-23T18:56:36.070Z,37.63
2019-03-23T18:59:08.921Z,32.00
2019-03-23T19:01:41.738Z,31.13
2019-03-23T19:04:14.541Z,34.53
2019-03-23T19:06:47.361Z,31.83
2019-03-23T19:09:20.163Z,30.57
2019-03-23T19:11:52.917Z,34.30
2019-03-23T19:14:25.746Z,41.83
2019-03-23T19:16:58.562Z,45.33
2019-03-23T19:19:31.354Z,41.47
2019-03-23T19:22:04.286Z,41.47
2019-03-23T19:24:37.061Z,44.93
2019-03-23T19:27:09.942Z,53.63
2019-03-23T19:29:42.802Z,103.57
2019-03-23T19:32:15.582Z,88.20
2019-03-23T19:34:48.398Z,72.00
2019-03-23T19:37:21.209Z,70.30
2019-03-23T19:39:54.013Z,80.33
2019-03-23T19:42:26.796Z,84.37
2019-03-23T19:44:59.659Z,98.23
2019-03-23T19:47:32.527Z,77.00
2019-03-23T19:50:05.897Z,64.37
2019-03-23T19:52:38.707Z,54.43
2019-03-23T19:55:12.957Z,51.17
2019-03-23T19:57:45.755Z,45.43
2019-03-23T20:00:18.771Z,43.50
2019-03-23T20:02:51.587Z,52.67
2019-03-23T20:05:24.408Z,48.93
2019-03-23T20:07:57.255Z,51.47
2019-03-23T20:10:30.030Z,49.63
2019-03-23T20:13:02.866Z,53.17
2019-03-23T20:15:35.667Z,45.17
2019-03-23T20:18:08.846Z,44.23
2019-03-23T20:20:41.993Z,45.33
2019-03-23T20:23:14.797Z,46.37
2019-03-23T20:25:47.520Z,41.43
2019-03-23T20:28:20.270Z,39.03
2019-03-23T20:30:53.130Z,41.53
2019-03-23T20:33:25.923Z,40.37
2019-03-23T20:35:58.747Z,38.07
2019-03-23T20:38:31.635Z,42.80
2019-03-23T20:41:04.525Z,38.60
2019-03-23T20:43:37.376Z,37.63
2019-03-23T20:46:12.998Z,39.13
2019-03-23T20:48:46.683Z,40.87
2019-03-23T20:51:19.517Z,45.53
2019-03-23T20:53:52.427Z,43.40
2019-03-23T20:56:25.236Z,39.53
2019-03-23T20:58:58.102Z,39.43
2019-03-23T21:01:30.936Z,39.13
2019-03-23T21:04:03.747Z,44.07
2019-03-23T21:06:36.550Z,42.33
2019-03-23T21:09:09.942Z,47.23
2019-03-23T21:11:42.738Z,65.33
2019-03-23T21:14:20.188Z,58.03
2019-03-23T21:16:50.146Z,77.00
2019-03-23T21:19:22.989Z,74.73
2019-03-23T21:21:55.865Z,83.70
2019-03-23T21:24:28.745Z,72.77
2019-03-23T21:27:03.990Z,69.83
2019-03-23T21:29:36.780Z,83.40
2019-03-23T21:32:09.589Z,77.87
2019-03-23T21:34:42.429Z,78.57
2019-03-23T21:37:15.247Z,76.13
2019-03-23T21:39:48.082Z,74.80
2019-03-23T21:42:21.135Z,85.43
2019-03-23T21:44:53.919Z,89.93
2019-03-23T21:47:26.766Z,117.43
2019-03-23T21:49:59.668Z,143.37
2019-03-23T21:52:32.523Z,141.30
2019-03-23T21:55:05.811Z,133.27
2019-03-23T21:57:38.603Z,134.93
2019-03-23T22:00:12.548Z,136.13
2019-03-23T22:02:45.307Z,142.00
2019-03-23T22:05:18.123Z,153.20
2019-03-23T22:07:51.291Z,142.57
2019-03-23T22:10:24.051Z,153.17
2019-03-23T22:12:56.846Z,148.63
2019-03-23T22:15:34.267Z,130.83
2019-03-23T22:18:08.583Z,127.27
2019-03-23T22:20:41.378Z,132.60
2019-03-23T22:23:14.178Z,178.70
2019-03-23T22:25:46.961Z,160.23
2019-03-23T22:28:19.767Z,208.53
2019-03-23T22:30:52.599Z,183.73
2019-03-23T22:33:25.453Z,174.80
2019-03-23T22:35:58.238Z,152.57
2019-03-23T22:38:31.288Z,162.37
2019-03-23T22:41:04.108Z,153.43
2019-03-23T22:43:36.901Z,132.73
2019-03-23T22:46:09.724Z,133.10
2019-03-23T22:48:42.537Z,142.60
2019-03-23T22:51:16.372Z,153.97
2019-03-23T22:53:49.154Z,147.20
2019-03-23T22:56:21.994Z,141.33
2019-03-23T22:58:54.788Z,134.23
2019-03-23T23:01:27.575Z,150.57
2019-03-23T23:04:00.741Z,146.23
2019-03-23T23:06:33.549Z,195.70
2019-03-23T23:09:09.109Z,188.67
2019-03-23T23:11:41.973Z,184.23
2019-03-23T23:14:14.905Z,187.57
2019-03-23T23:16:47.737Z,168.47
2019-03-23T23:19:20.527Z,158.40
2019-03-23T23:21:53.695Z,179.00
2019-03-23T23:24:26.491Z,205.73
2019-03-23T23:26:59.294Z,202.43
2019-03-23T23:29:32.067Z,187.93
2019-03-23T23:32:04.883Z,186.40
2019-03-23T23:34:37.648Z,198.83
2019-03-23T23:37:11.139Z,184.40
2019-03-23T23:39:43.919Z,175.83
2019-03-23T23:42:17.326Z,167.23
2019-03-23T23:44:50.358Z,148.03
2019-03-23T23:47:23.252Z,146.93
2019-03-23T23:49:56.183Z,145.33
2019-03-23T23:52:28.967Z,147.63
2019-03-23T23:55:01.748Z,141.33
2019-03-23T23:57:34.603Z,141.10
